Time;durP1;ratioP1;P1;durP2;ratioP2;P2;SDS_P1;SDS_P2;PMS_P1;PMS_P2;Temp;Humidity;BMP_temperature;BMP_pressure;BME280_temperature;BME280_humidity;BME280_pressure;Samples;Min_cycle;Max_cycle;Signal;HPM_P1;HPM_P2
2024/01/07 00:00:04;;;;;;;73.77;69.17;;;-0.70;99.90;;;;;;5068380;28;20129;-78
2024/01/07 00:02:31;;;;;;;153.93;143.98;;;-0.70;99.90;;;;;;5081845;28;20584;-78
2024/01/07 00:04:57;;;;;;;115.53;108.30;;;-0.70;99.90;;;;;;5064412;28;20130;-76
2024/01/07 00:07:23;;;;;;;62.47;58.55;;;-0.70;99.90;;;;;;5069957;28;20048;-77
2024/01/07 00:09:49;;;;;;;129.43;120.57;;;-0.70;99.90;;;;;;5053920;28;20519;-77
2024/01/07 00:12:15;;;;;;;87.77;82.53;;;-0.70;99.90;;;;;;5083525;28;20310;-77
2024/01/07 00:14:41;;;;;;;287.07;265.33;;;-0.70;99.90;;;;;;5071149;28;20486;-77
2024/01/07 00:17:09;;;;;;;101.30;95.37;;;-0.70;99.90;;;;;;5059077;28;20769;-77
2024/01/07 00:19:37;;;;;;;55.38;51.97;;;-0.70;99.90;;;;;;5060159;28;20131;-77
2024/01/07 00:22:03;;;;;;;189.63;176.85;;;-0.70;99.90;;;;;;5075116;28;20040;-77
2024/01/07 00:24:29;;;;;;;87.22;81.80;;;-0.70;99.90;;;;;;5078478;28;20086;-77
2024/01/07 00:26:55;;;;;;;97.93;91.90;;;-0.70;99.90;;;;;;5079577;28;20099;-77
2024/01/07 00:29:21;;;;;;;75.07;70.47;;;-0.70;99.90;;;;;;5083863;28;20043;-77
2024/01/07 00:31:47;;;;;;;44.40;41.43;;;-0.70;99.90;;;;;;5055564;28;20430;-77
2024/01/07 00:34:12;;;;;;;63.30;59.27;;;-0.70;99.90;;;;;;5065868;28;20039;-77
2024/01/07 00:36:38;;;;;;;89.17;83.80;;;-0.70;99.90;;;;;;5075714;28;20042;-77
2024/01/07 00:39:04;;;;;;;149.97;140.90;;;-0.70;99.90;;;;;;5059618;28;20046;-77
2024/01/07 00:41:30;;;;;;;108.47;101.93;;;-0.70;99.90;;;;;;5079970;28;20521;-77
2024/01/07 00:43:56;;;;;;;73.87;69.50;;;-0.70;99.90;;;;;;5062208;28;20048;-77
2024/01/07 00:46:22;;;;;;;67.80;63.40;;;-0.70;99.90;;;;;;5077404;28;20074;-77
2024/01/07 00:48:48;;;;;;;124.93;117.27;;;-0.70;99.90;;;;;;5058873;28;20075;-77
2024/01/07 00:51:13;;;;;;;49.90;46.63;;;-0.70;99.90;;;;;;5058890;28;20039;-77
2024/01/07 00:53:39;;;;;;;106.53;100.27;;;-0.80;99.90;;;;;;5058707;28;20450;-77
2024/01/07 00:56:06;;;;;;;88.30;83.17;;;-0.70;99.90;;;;;;5077550;28;20038;-77
2024/01/07 00:58:31;;;;;;;111.22;104.22;;;-0.70;99.90;;;;;;5077472;28;20178;-77
2024/01/07 01:00:59;;;;;;;111.93;104.53;;;-0.70;99.90;;;;;;5063489;28;21634;-77
2024/01/07 01:03:25;;;;;;;95.93;90.25;;;-0.70;99.90;;;;;;5079638;28;20089;-77
2024/01/07 01:05:51;;;;;;;204.32;190.57;;;-0.70;99.90;;;;;;5062758;28;20040;-77
2024/01/07 01:08:17;;;;;;;118.50;110.93;;;-0.70;99.90;;;;;;5066972;28;20066;-76
2024/01/07 01:10:43;;;;;;;74.67;70.23;;;-0.70;99.90;;;;;;5063245;28;20857;-77
2024/01/07 01:13:09;;;;;;;181.80;169.63;;;-0.80;99.90;;;;;;5069037;28;20076;-77
2024/01/07 01:15:35;;;;;;;70.10;65.95;;;-0.80;99.90;;;;;;5072870;28;20032;-77
2024/01/07 01:18:01;;;;;;;172.83;162.17;;;-0.80;99.90;;;;;;5054878;28;20039;-77
2024/01/07 01:20:26;;;;;;;96.33;90.90;;;-0.80;99.90;;;;;;5057202;28;20086;-76
2024/01/07 01:22:52;;;;;;;135.40;127.03;;;-0.70;99.90;;;;;;5078906;28;20144;-77
2024/01/07 01:25:18;;;;;;;138.87;131.10;;;-0.80;99.90;;;;;;5065629;28;20054;-77
2024/01/07 01:27:44;;;;;;;124.70;117.23;;;-0.70;99.90;;;;;;5080085;28;20039;-76
2024/01/07 01:30:11;;;;;;;167.05;156.93;;;-0.70;99.90;;;;;;5063155;28;20036;-76
2024/01/07 01:32:37;;;;;;;105.53;99.30;;;-0.80;99.90;;;;;;5077818;28;20037;-77
2024/01/07 01:35:04;;;;;;;70.85;66.55;;;-0.80;99.90;;;;;;5069102;28;20107;-77
2024/01/07 01:37:32;;;;;;;158.73;149.07;;;-0.80;99.90;;;;;;5062762;28;20040;-76
2024/01/07 01:39:58;;;;;;;75.88;71.03;;;-0.80;99.90;;;;;;5075523;28;20094;-77
2024/01/07 01:42:24;;;;;;;76.45;71.65;;;-0.80;99.90;;;;;;5073817;28;20083;-77
2024/01/07 01:44:50;;;;;;;89.30;84.07;;;-0.80;99.90;;;;;;5065516;28;20374;-77
2024/01/07 01:47:16;;;;;;;135.37;126.83;;;-0.80;99.90;;;;;;5075012;28;20087;-77
2024/01/07 01:49:42;;;;;;;125.10;117.07;;;-0.80;99.90;;;;;;5076793;28;20032;-77
2024/01/07 01:52:09;;;;;;;106.95;100.57;;;-0.80;99.90;;;;;;5078841;28;20082;-77
2024/01/07 01:54:35;;;;;;;144.75;135.43;;;-0.80;99.90;;;;;;5069436;28;20040;-77
2024/01/07 01:57:01;;;;;;;61.85;57.95;;;-0.80;99.90;;;;;;5056335;28;20425;-77
2024/01/07 01:59:28;;;;;;;44.37;41.10;;;-0.80;99.90;;;;;;5055180;28;20028;-77
2024/01/07 02:01:55;;;;;;;72.90;68.32;;;-0.80;99.90;;;;;;5069952;28;20071;-77
2024/01/07 02:04:20;;;;;;;134.85;126.68;;;-0.90;99.90;;;;;;5073504;28;20075;-77
2024/01/07 02:06:46;;;;;;;85.07;79.90;;;-0.80;99.90;;;;;;5063821;28;20040;-76
2024/01/07 02:09:12;;;;;;;74.17;69.63;;;-0.80;99.90;;;;;;5073729;28;20407;-77
2024/01/07 02:11:38;;;;;;;89.93;84.53;;;-0.80;99.90;;;;;;5060957;28;20048;-77
2024/01/07 02:14:04;;;;;;;115.97;109.10;;;-0.80;99.90;;;;;;5080952;28;20270;-77
2024/01/07 02:16:29;;;;;;;115.93;108.77;;;-0.80;99.90;;;;;;5074977;28;20102;-77
2024/01/07 02:18:55;;;;;;;105.17;99.10;;;-0.80;99.90;;;;;;5075215;28;20040;-77
2024/01/07 02:21:21;;;;;;;162.43;152.50;;;-0.70;99.90;;;;;;5057461;28;20079;-76
2024/01/07 02:23:46;;;;;;;77.43;72.93;;;-0.80;99.90;;;;;;5076839;28;20454;-77
2024/01/07 02:26:12;;;;;;;82.97;77.90;;;-0.80;99.90;;;;;;5068384;28;20040;-76
2024/01/07 02:28:38;;;;;;;116.30;109.60;;;-0.80;99.90;;;;;;5078539;28;20047;-76
2024/01/07 02:31:04;;;;;;;87.93;82.90;;;-0.80;99.90;;;;;;5050980;28;20135;-77
2024/01/07 02:33:30;;;;;;;113.27;105.97;;;-0.80;99.90;;;;;;5078298;28;20040;-76
2024/01/07 02:35:56;;;;;;;89.90;84.68;;;-0.80;99.90;;;;;;5077332;28;20070;-77
2024/01/07 02:38:22;;;;;;;98.40;92.55;;;-0.80;99.90;;;;;;5072384;28;20143;-77
2024/01/07 02:40:48;;;;;;;90.53;85.10;;;-0.80;99.90;;;;;;5085389;28;20105;-77
2024/01/07 02:43:13;;;;;;;214.10;197.63;;;-0.80;99.90;;;;;;5077227;28;20032;-77
2024/01/07 02:45:39;;;;;;;177.67;165.70;;;-0.80;99.90;;;;;;5075513;28;20048;-77
2024/01/07 02:48:05;;;;;;;93.67;88.07;;;-0.80;99.90;;;;;;5069899;28;20063;-77
2024/01/07 02:50:32;;;;;;;71.50;67.25;;;-0.80;99.90;;;;;;5075971;28;20052;-77
2024/01/07 02:52:57;;;;;;;100.60;94.65;;;-0.80;99.90;;;;;;5073399;28;20040;-77
2024/01/07 02:55:23;;;;;;;78.93;74.40;;;-0.80;99.90;;;;;;5062936;28;20389;-77
2024/01/07 02:57:49;;;;;;;87.20;82.17;;;-0.80;99.90;;;;;;5062386;28;20123;-77
2024/01/07 03:00:15;;;;;;;89.77;84.53;;;-0.80;99.90;;;;;;5085245;28;20614;-77
2024/01/07 03:02:40;;;;;;;193.10;181.02;;;-0.80;99.90;;;;;;5071097;28;20044;-77
2024/01/07 03:05:07;;;;;;;100.77;94.90;;;-0.80;99.90;;;;;;5075271;28;20044;-76
2024/01/07 03:07:32;;;;;;;55.90;52.42;;;-0.80;99.90;;;;;;5084559;28;20057;-77
2024/01/07 03:09:58;;;;;;;107.87;101.67;;;-0.80;99.90;;;;;;5080928;28;20566;-77
2024/01/07 03:12:24;;;;;;;67.53;63.40;;;-0.80;99.90;;;;;;5069219;28;20032;-77
2024/01/07 03:14:49;;;;;;;131.77;123.80;;;-0.80;99.90;;;;;;5083501;28;20464;-76
2024/01/07 03:17:17;;;;;;;92.30;87.07;;;-0.90;99.90;;;;;;5081189;28;20040;-77
2024/01/07 03:19:43;;;;;;;95.95;90.28;;;-0.90;99.90;;;;;;5082995;28;20047;-77
2024/01/07 03:22:08;;;;;;;144.10;135.13;;;-0.80;99.90;;;;;;5062219;28;20044;-77
2024/01/07 03:24:34;;;;;;;106.70;100.63;;;-0.90;99.90;;;;;;5067334;28;20285;-77
2024/01/07 03:27:00;;;;;;;131.00;121.83;;;-0.90;99.90;;;;;;5084631;28;20047;-77
2024/01/07 03:29:25;;;;;;;38.00;35.73;;;-0.90;99.90;;;;;;5062211;28;20485;-77
2024/01/07 03:31:52;;;;;;;131.97;123.60;;;-0.90;99.90;;;;;;5070103;28;20040;-77
2024/01/07 03:34:19;;;;;;;96.57;91.00;;;-0.90;99.90;;;;;;5072833;28;20036;-77
2024/01/07 03:36:44;;;;;;;85.72;80.78;;;-0.90;99.90;;;;;;5068517;28;20036;-77
2024/01/07 03:39:10;;;;;;;48.13;45.43;;;-0.90;99.90;;;;;;5077326;28;20120;-77
2024/01/07 03:41:36;;;;;;;61.67;58.13;;;-0.90;99.90;;;;;;5054011;28;20047;-77
2024/01/07 03:44:02;;;;;;;117.90;111.17;;;-0.90;99.90;;;;;;5070228;28;20039;-77
2024/01/07 03:46:27;;;;;;;81.13;76.40;;;-0.90;99.90;;;;;;5070485;28;20115;-77
2024/01/07 03:48:53;;;;;;;261.67;242.43;;;-0.90;99.90;;;;;;5056902;28;20036;-77
2024/01/07 03:51:19;;;;;;;78.23;73.67;;;-0.90;99.90;;;;;;5059834;28;20120;-77
2024/01/07 03:53:44;;;;;;;103.63;97.37;;;-0.90;99.90;;;;;;5063405;28;20043;-77
2024/01/07 03:56:10;;;;;;;58.50;55.50;;;-0.80;99.90;;;;;;5072815;28;20476;-76
2024/01/07 03:58:36;;;;;;;141.07;132.53;;;-0.90;99.90;;;;;;5084744;28;20040;-76
2024/01/07 04:01:02;;;;;;;71.17;67.00;;;-0.80;99.90;;;;;;5060594;28;20185;-77
2024/01/07 04:03:27;;;;;;;48.07;45.20;;;-0.80;99.90;;;;;;5064468;28;20044;-76
2024/01/07 04:05:53;;;;;;;177.10;163.97;;;-0.80;99.90;;;;;;5066700;28;20043;-76
2024/01/07 04:08:19;;;;;;;145.73;137.57;;;-0.90;99.90;;;;;;5067814;28;20060;-77
2024/01/07 04:10:45;;;;;;;280.27;258.90;;;-0.80;99.90;;;;;;5058571;28;20422;-77
2024/01/07 04:13:10;;;;;;;127.97;120.83;;;-0.80;99.90;;;;;;5088307;28;20520;-77
2024/01/07 04:15:36;;;;;;;139.27;130.67;;;-0.80;99.90;;;;;;5071763;28;20102;-77
2024/01/07 04:18:03;;;;;;;69.40;65.60;;;-0.80;99.90;;;;;;5065352;28;20063;-77
2024/01/07 04:20:30;;;;;;;56.70;53.80;;;-0.80;99.90;;;;;;5078132;28;20032;-77
2024/01/07 04:22:56;;;;;;;184.57;172.55;;;-0.80;99.90;;;;;;5077739;28;20145;-77
2024/01/07 04:25:22;;;;;;;58.95;55.63;;;-0.80;99.90;;;;;;5069607;28;20510;-77
2024/01/07 04:27:48;;;;;;;191.98;181.20;;;-0.80;99.90;;;;;;5054510;28;20041;-77
2024/01/07 04:30:14;;;;;;;128.87;120.90;;;-0.80;99.90;;;;;;5070003;28;20098;-77
2024/01/07 04:32:40;;;;;;;300.77;278.87;;;-0.80;99.90;;;;;;5061667;28;20078;-76
2024/01/07 04:35:06;;;;;;;103.00;97.00;;;-0.80;99.90;;;;;;5057749;28;20041;-77
2024/01/07 04:37:35;;;;;;;134.38;126.50;;;-0.80;99.90;;;;;;5062567;28;20032;-76
2024/01/07 04:40:02;;;;;;;63.75;60.25;;;-0.80;99.90;;;;;;5061356;28;20440;-76
2024/01/07 04:42:27;;;;;;;108.72;102.75;;;-0.90;99.90;;;;;;5058441;28;20128;-77
2024/01/07 04:44:53;;;;;;;118.90;112.23;;;-0.90;99.90;;;;;;5075467;28;20194;-76
2024/01/07 04:47:29;;;;;;;78.67;74.57;;;-0.90;99.90;;;;;;5063613;28;20124;-77
2024/01/07 04:49:55;;;;;;;124.53;117.68;;;-0.80;99.90;;;;;;5067973;28;20044;-77
2024/01/07 04:52:25;;;;;;;120.27;113.83;;;-0.90;99.90;;;;;;5075072;28;20055;-76
2024/01/07 04:54:55;;;;;;;118.13;111.85;;;-0.90;99.90;;;;;;5059903;28;20039;-76
2024/01/07 04:57:21;;;;;;;146.88;138.80;;;-0.80;99.90;;;;;;5083131;28;20036;-77
2024/01/07 04:59:47;;;;;;;61.92;58.65;;;-0.80;99.90;;;;;;5057678;28;20096;-76
2024/01/07 05:02:13;;;;;;;72.97;69.15;;;-0.80;99.90;;;;;;5070615;28;20141;-76
2024/01/07 05:04:39;;;;;;;75.70;71.63;;;-0.80;99.90;;;;;;5074972;28;20131;-76
2024/01/07 05:07:05;;;;;;;80.10;75.68;;;-0.80;99.90;;;;;;5054819;28;20119;-76
2024/01/07 05:09:32;;;;;;;74.40;70.30;;;-0.80;99.90;;;;;;5065020;28;20078;-76
2024/01/07 05:11:58;;;;;;;81.88;77.50;;;-0.80;99.90;;;;;;5060558;28;20043;-76
2024/01/07 05:14:24;;;;;;;144.27;134.90;;;-0.80;99.90;;;;;;5063337;28;20040;-76
2024/01/07 05:16:50;;;;;;;70.20;66.30;;;-0.80;99.90;;;;;;5061056;28;20033;-76
2024/01/07 05:19:16;;;;;;;51.25;48.67;;;-0.80;99.90;;;;;;5055382;28;20041;-76
2024/01/07 05:21:41;;;;;;;76.60;72.53;;;-0.80;99.90;;;;;;5061124;28;20397;-76
2024/01/07 05:24:07;;;;;;;175.27;164.20;;;-0.80;99.90;;;;;;5072188;28;20040;-76
2024/01/07 05:26:44;;;;;;;195.20;183.00;;;-0.80;99.90;;;;;;5056127;28;20063;-76
2024/01/07 05:29:11;;;;;;;79.82;75.38;;;-0.80;99.90;;;;;;5072660;28;20286;-77
2024/01/07 05:31:39;;;;;;;186.95;174.70;;;-0.80;99.90;;;;;;5061110;28;20497;-77
2024/01/07 05:34:05;;;;;;;85.22;80.50;;;-0.80;99.90;;;;;;5054330;28;20569;-76
2024/01/07 05:36:30;;;;;;;280.40;258.20;;;-0.80;99.90;;;;;;5077560;28;20115;-77
2024/01/07 05:38:56;;;;;;;110.00;103.90;;;-0.80;99.90;;;;;;5082376;28;20139;-76
2024/01/07 05:41:22;;;;;;;234.50;218.07;;;-0.80;99.90;;;;;;5055634;28;20045;-76
2024/01/07 05:43:47;;;;;;;70.60;66.80;;;-0.80;99.90;;;;;;5078078;28;20151;-77
2024/01/07 05:46:13;;;;;;;102.30;96.40;;;-0.80;99.90;;;;;;5073467;28;20497;-77
2024/01/07 05:48:47;;;;;;;89.40;84.40;;;-0.80;99.90;;;;;;5052756;28;20413;-76
2024/01/07 05:51:14;;;;;;;205.95;192.05;;;-0.80;99.90;;;;;;5053832;28;20036;-76
2024/01/07 05:53:41;;;;;;;151.95;142.25;;;-0.80;99.90;;;;;;5054718;28;20044;-76
2024/01/07 05:56:07;;;;;;;71.63;67.97;;;-0.80;99.90;;;;;;5060901;28;20032;-77
2024/01/07 05:58:33;;;;;;;206.73;191.98;;;-0.70;99.90;;;;;;5058923;28;20043;-77
2024/01/07 06:00:58;;;;;;;343.83;315.75;;;-0.70;99.90;;;;;;5072363;28;20025;-76
2024/01/07 06:03:24;;;;;;;109.60;103.80;;;-0.70;99.90;;;;;;5061446;28;20055;-76
2024/01/07 06:05:50;;;;;;;157.77;147.73;;;-0.70;99.90;;;;;;5080192;28;20482;-76
2024/01/07 06:08:16;;;;;;;103.57;97.90;;;-0.70;99.90;;;;;;5066284;28;20077;-76
2024/01/07 06:10:42;;;;;;;367.90;336.20;;;-0.70;99.90;;;;;;5050733;28;20044;-76
2024/01/07 06:13:08;;;;;;;57.17;54.05;;;-0.70;99.90;;;;;;5076389;28;20056;-76
2024/01/07 06:15:33;;;;;;;63.83;60.80;;;-0.70;99.90;;;;;;5084438;28;20032;-76
2024/01/07 06:17:59;;;;;;;173.47;160.90;;;-0.70;99.90;;;;;;5061534;28;20364;-75
2024/01/07 06:20:25;;;;;;;238.03;219.07;;;-0.70;99.90;;;;;;5066952;28;20043;-75
2024/01/07 06:22:50;;;;;;;114.97;108.77;;;-0.70;99.90;;;;;;5075333;28;20070;-76
2024/01/07 06:25:16;;;;;;;117.40;110.73;;;-0.70;99.90;;;;;;5075811;28;20043;-76
2024/01/07 06:27:42;;;;;;;115.10;108.23;;;-0.70;99.90;;;;;;5057066;28;20101;-76
2024/01/07 06:30:08;;;;;;;149.43;139.57;;;-0.70;99.90;;;;;;5063039;28;20199;-76
2024/01/07 06:32:35;;;;;;;293.73;271.13;;;-0.70;99.90;;;;;;5068604;28;20079;-76
2024/01/07 06:35:01;;;;;;;327.98;299.90;;;-0.70;99.90;;;;;;5056689;28;20040;-76
2024/01/07 06:37:29;;;;;;;102.85;97.00;;;-0.70;99.90;;;;;;5059378;28;20336;-76
2024/01/07 06:39:55;;;;;;;87.75;83.25;;;-0.70;99.90;;;;;;5078810;28;20043;-76
2024/01/07 06:42:20;;;;;;;90.85;85.78;;;-0.70;99.90;;;;;;5065144;28;20043;-76
2024/01/07 06:44:46;;;;;;;147.67;139.03;;;-0.70;99.90;;;;;;5058902;28;20036;-76
2024/01/07 06:47:12;;;;;;;117.80;111.53;;;-0.70;99.90;;;;;;5057602;28;20055;-75
2024/01/07 06:49:38;;;;;;;97.37;92.27;;;-0.70;99.90;;;;;;5064887;28;20524;-75
2024/01/07 06:52:05;;;;;;;189.32;176.43;;;-0.70;99.90;;;;;;5072222;28;20173;-76
2024/01/07 06:54:31;;;;;;;142.32;133.63;;;-0.70;99.90;;;;;;5073760;28;20124;-76
2024/01/07 06:56:56;;;;;;;85.10;80.77;;;-0.70;99.90;;;;;;5058092;28;20086;-75
2024/01/07 06:59:22;;;;;;;119.00;111.23;;;-0.70;99.90;;;;;;5067078;28;20279;-75
2024/01/07 07:01:48;;;;;;;161.13;151.17;;;-0.70;99.90;;;;;;5064687;28;20036;-76
2024/01/07 07:04:13;;;;;;;99.93;94.77;;;-0.70;99.90;;;;;;5071605;28;20375;-76
2024/01/07 07:06:39;;;;;;;52.40;49.77;;;-0.70;99.90;;;;;;5077628;28;20040;-76
2024/01/07 07:09:05;;;;;;;122.47;115.13;;;-0.70;99.90;;;;;;5075975;28;20052;-76
2024/01/07 07:11:31;;;;;;;90.40;85.43;;;-0.70;99.90;;;;;;5069623;28;20041;-75
2024/01/07 07:13:57;;;;;;;150.93;140.57;;;-0.70;99.90;;;;;;5060293;28;20506;-76
2024/01/07 07:16:23;;;;;;;187.23;174.27;;;-0.70;99.90;;;;;;5063043;28;20035;-75
2024/01/07 07:18:48;;;;;;;138.47;129.93;;;-0.70;99.90;;;;;;5077814;28;20032;-75
2024/01/07 07:21:14;;;;;;;207.40;195.07;;;-0.70;99.90;;;;;;5073574;28;20371;-76
2024/01/07 07:23:40;;;;;;;103.33;97.73;;;-0.70;99.90;;;;;;5063164;28;20074;-75
2024/01/07 07:26:06;;;;;;;219.37;202.23;;;-0.70;99.90;;;;;;5081135;28;20519;-75
2024/01/07 07:28:32;;;;;;;232.63;215.43;;;-0.70;99.90;;;;;;5084256;28;20082;-76
2024/01/07 07:30:58;;;;;;;117.13;110.73;;;-0.70;99.90;;;;;;5084521;28;20044;-75
2024/01/07 07:33:24;;;;;;;89.43;84.77;;;-0.80;99.90;;;;;;5083610;28;20076;-75
2024/01/07 07:35:50;;;;;;;140.63;132.20;;;-0.70;99.90;;;;;;5063821;28;20082;-76
2024/01/07 07:38:15;;;;;;;307.60;282.23;;;-0.70;99.90;;;;;;5059434;28;20068;-75
2024/01/07 07:40:41;;;;;;;145.97;137.63;;;-0.70;99.90;;;;;;5076094;28;20080;-75
2024/01/07 07:43:08;;;;;;;247.98;230.50;;;-0.70;99.60;;;;;;5062133;28;20083;-76
2024/01/07 07:45:34;;;;;;;216.75;201.82;;;-0.70;99.60;;;;;;5081234;28;20456;-75
2024/01/07 07:48:00;;;;;;;91.63;86.67;;;-0.70;98.50;;;;;;5069833;28;20051;-76
2024/01/07 07:50:25;;;;;;;207.93;194.23;;;-0.70;99.60;;;;;;5079935;28;20120;-75
2024/01/07 07:52:51;;;;;;;203.10;189.07;;;-0.80;99.90;;;;;;5056602;28;20040;-75
2024/01/07 07:55:17;;;;;;;136.27;128.47;;;-0.70;99.90;;;;;;5078765;28;20501;-75
2024/01/07 07:57:44;;;;;;;188.77;176.85;;;-0.70;99.40;;;;;;5087362;28;20040;-75
2024/01/07 08:00:12;;;;;;;276.85;254.73;;;-0.80;98.90;;;;;;5055245;28;20047;-75
2024/01/07 08:02:39;;;;;;;338.73;313.20;;;-0.70;98.60;;;;;;5054330;28;20065;-76
2024/01/07 08:05:06;;;;;;;231.90;215.55;;;-0.70;97.40;;;;;;5075532;28;20335;-76
2024/01/07 08:07:32;;;;;;;323.30;295.35;;;-0.70;97.00;;;;;;5077440;28;20524;-75
2024/01/07 08:09:57;;;;;;;246.83;230.53;;;-0.70;96.70;;;;;;5077620;28;20040;-75
2024/01/07 08:12:24;;;;;;;242.33;225.93;;;-0.70;96.40;;;;;;5068574;28;20413;-75
2024/01/07 08:14:49;;;;;;;225.85;210.68;;;-0.80;96.40;;;;;;5087001;28;20044;-75
2024/01/07 08:17:15;;;;;;;404.97;372.27;;;-0.80;96.30;;;;;;5071658;28;20679;-75
2024/01/07 08:19:41;;;;;;;199.02;185.90;;;-0.80;95.90;;;;;;5056616;28;20539;-75
2024/01/07 08:22:08;;;;;;;337.33;310.20;;;-0.90;95.00;;;;;;5080155;28;20036;-75
2024/01/07 08:24:34;;;;;;;320.20;296.75;;;-0.90;94.60;;;;;;5058054;28;20288;-75
2024/01/07 08:27:01;;;;;;;311.87;286.73;;;-1.00;93.70;;;;;;5067008;28;20032;-76
2024/01/07 08:29:27;;;;;;;257.42;238.98;;;-1.10;94.40;;;;;;5078646;28;20470;-75
2024/01/07 08:31:52;;;;;;;245.83;227.30;;;-1.10;94.60;;;;;;5076071;28;20083;-75
2024/01/07 08:34:18;;;;;;;294.50;274.20;;;-1.20;95.00;;;;;;5066312;28;20043;-75
2024/01/07 08:36:44;;;;;;;132.23;124.83;;;-1.20;94.60;;;;;;5076845;28;20127;-75
2024/01/07 08:39:10;;;;;;;212.10;198.03;;;-1.30;94.80;;;;;;5070298;28;20119;-75
2024/01/07 08:41:36;;;;;;;214.93;200.30;;;-1.30;94.90;;;;;;5061042;28;20505;-75
2024/01/07 08:44:02;;;;;;;127.63;120.87;;;-1.20;95.00;;;;;;5077054;28;20033;-75
2024/01/07 08:46:27;;;;;;;170.87;159.37;;;-1.30;95.50;;;;;;5062968;28;20549;-75
2024/01/07 08:48:53;;;;;;;403.80;371.13;;;-1.30;95.80;;;;;;5071695;28;20032;-75
2024/01/07 08:51:19;;;;;;;276.70;256.10;;;-1.20;96.50;;;;;;5082675;28;20460;-75
2024/01/07 08:53:44;;;;;;;138.07;130.23;;;-1.20;95.70;;;;;;5063418;28;20111;-76
2024/01/07 08:56:12;;;;;;;166.17;155.40;;;-1.10;95.90;;;;;;5060650;28;20028;-76
2024/01/07 08:58:38;;;;;;;155.93;145.50;;;-1.10;95.40;;;;;;5070949;28;20486;-76
2024/01/07 09:01:03;;;;;;;272.73;252.83;;;-1.00;96.70;;;;;;5066092;28;20066;-76
2024/01/07 09:03:29;;;;;;;228.37;213.10;;;-1.00;96.60;;;;;;5072343;28;20042;-76
2024/01/07 09:05:55;;;;;;;133.73;125.93;;;-0.90;96.40;;;;;;5076173;28;20036;-76
2024/01/07 09:08:20;;;;;;;110.70;105.07;;;-0.90;96.90;;;;;;5053057;28;20062;-76
2024/01/07 09:10:46;;;;;;;274.13;254.80;;;-1.00;96.60;;;;;;5058729;28;20403;-76
2024/01/07 09:13:12;;;;;;;141.57;133.70;;;-1.00;97.00;;;;;;5053523;28;20470;-76
2024/01/07 09:15:38;;;;;;;110.40;103.97;;;-1.00;95.80;;;;;;5051353;28;20505;-76
2024/01/07 09:18:04;;;;;;;184.32;173.43;;;-1.00;96.40;;;;;;5065268;28;20028;-76
2024/01/07 09:20:30;;;;;;;116.95;110.93;;;-0.90;96.00;;;;;;5070138;28;20036;-76
2024/01/07 09:22:56;;;;;;;216.10;201.10;;;-0.80;96.50;;;;;;5059810;28;20101;-76
2024/01/07 09:25:21;;;;;;;172.60;160.53;;;-0.70;96.10;;;;;;5074258;28;20056;-76
2024/01/07 09:27:47;;;;;;;113.20;106.57;;;-0.70;94.90;;;;;;5078650;28;20455;-76
2024/01/07 09:30:14;;;;;;;109.77;103.80;;;-0.60;94.50;;;;;;5078288;28;20036;-76
2024/01/07 09:32:41;;;;;;;221.93;207.10;;;-0.60;94.70;;;;;;5075603;28;20047;-76
2024/01/07 09:35:08;;;;;;;232.15;215.05;;;-0.60;96.00;;;;;;5060918;28;20027;-76
2024/01/07 09:37:35;;;;;;;128.60;121.30;;;-0.60;95.30;;;;;;5056948;28;20041;-76
2024/01/07 09:40:01;;;;;;;108.45;102.88;;;-0.50;93.60;;;;;;5057166;28;20028;-76
2024/01/07 09:42:27;;;;;;;240.00;222.50;;;-0.50;93.50;;;;;;5054780;28;20133;-75
2024/01/07 09:44:53;;;;;;;169.20;159.27;;;-0.50;92.90;;;;;;5064898;28;20703;-76
2024/01/07 09:47:20;;;;;;;152.60;144.25;;;-0.50;92.10;;;;;;5074107;28;20047;-76
2024/01/07 09:49:46;;;;;;;194.85;180.40;;;-0.50;91.60;;;;;;5077765;28;20506;-76
2024/01/07 09:52:12;;;;;;;335.60;307.80;;;-0.50;92.90;;;;;;5069143;28;20043;-76
2024/01/07 09:54:40;;;;;;;183.73;172.47;;;-0.50;92.30;;;;;;5075064;28;20037;-76
2024/01/07 09:57:07;;;;;;;294.60;270.25;;;-0.50;92.90;;;;;;5074512;28;20040;-76
2024/01/07 09:59:37;;;;;;;141.02;133.60;;;-0.50;93.30;;;;;;5054060;28;20525;-76
2024/01/07 10:02:03;;;;;;;253.80;237.45;;;-0.50;93.90;;;;;;5066627;28;20044;-76
2024/01/07 10:04:30;;;;;;;199.93;186.98;;;-0.50;95.00;;;;;;5056925;28;20082;-76
2024/01/07 10:06:56;;;;;;;96.82;91.93;;;-0.50;91.60;;;;;;5062521;28;20066;-76
2024/01/07 10:09:29;;;;;;;199.95;187.82;;;-0.50;93.30;;;;;;5071689;28;20387;-76
2024/01/07 10:11:55;;;;;;;169.40;159.38;;;-0.40;94.50;;;;;;5073096;28;20051;-76
2024/01/07 10:14:24;;;;;;;178.20;167.70;;;-0.40;94.00;;;;;;5065931;28;20036;-76
2024/01/07 10:16:50;;;;;;;138.18;130.70;;;-0.40;94.70;;;;;;5060538;28;20062;-76
2024/01/07 10:19:23;;;;;;;126.50;119.73;;;-0.40;93.40;;;;;;5083459;28;20303;-76
2024/01/07 10:22:00;;;;;;;103.50;98.13;;;-0.40;94.90;;;;;;5068294;28;20162;-76
2024/01/07 10:24:31;;;;;;;155.38;146.63;;;-0.30;94.00;;;;;;5052415;28;20111;-76
2024/01/07 10:26:56;;;;;;;144.93;137.18;;;-0.30;95.10;;;;;;5066138;28;20103;-76
2024/01/07 10:29:22;;;;;;;130.30;123.40;;;-0.30;95.10;;;;;;5053746;28;20086;-76
2024/01/07 10:31:48;;;;;;;125.30;118.40;;;-0.30;95.30;;;;;;5052490;28;20036;-76
2024/01/07 10:34:15;;;;;;;213.00;200.17;;;-0.20;93.80;;;;;;5072988;28;20049;-75
2024/01/07 10:36:42;;;;;;;96.45;91.18;;;-0.20;94.80;;;;;;5069858;28;20279;-75
2024/01/07 10:39:08;;;;;;;111.72;105.85;;;-0.10;94.40;;;;;;5053921;28;20051;-75
2024/01/07 10:41:37;;;;;;;81.70;77.37;;;-0.10;94.40;;;;;;5073340;28;20041;-76
2024/01/07 10:44:03;;;;;;;134.02;126.60;;;-0.10;95.70;;;;;;5073911;28;20294;-75
2024/01/07 10:46:30;;;;;;;137.83;130.23;;;-0.10;96.10;;;;;;5068591;28;20043;-75
2024/01/07 10:49:04;;;;;;;154.82;146.52;;;0.00;95.20;;;;;;5054778;28;20037;-75
2024/01/07 10:51:34;;;;;;;152.40;143.93;;;0.00;94.60;;;;;;5067531;28;20044;-75
2024/01/07 10:54:00;;;;;;;172.43;162.40;;;0.00;95.20;;;;;;5074043;28;20087;-75
2024/01/07 10:56:59;;;;;;;142.23;134.52;;;0.00;94.10;;;;;;5056666;28;20124;-76
2024/01/07 10:59:26;;;;;;;131.73;124.82;;;0.00;94.70;;;;;;5062250;28;20055;-76
2024/01/07 11:01:52;;;;;;;209.77;196.68;;;0.10;93.90;;;;;;5071117;28;20044;-75
2024/01/07 11:04:48;;;;;;;76.43;72.68;;;0.10;94.50;;;;;;5071670;28;20036;-75
2024/01/07 11:07:22;;;;;;;91.28;86.75;;;0.20;95.40;;;;;;5080559;28;20047;-75
2024/01/07 11:09:54;;;;;;;108.70;103.03;;;0.20;95.50;;;;;;5063685;28;20048;-75
2024/01/07 11:12:20;;;;;;;184.43;173.90;;;0.20;96.00;;;;;;5074940;28;20486;-75
2024/01/07 11:14:52;;;;;;;186.02;175.07;;;0.20;95.70;;;;;;5056104;28;20040;-75
2024/01/07 11:17:38;;;;;;;123.15;116.50;;;0.20;93.90;;;;;;5065749;28;20054;-75
2024/01/07 11:20:14;;;;;;;131.10;123.70;;;0.00;93.90;;;;;;5061817;28;20079;-75
2024/01/07 11:22:39;;;;;;;143.98;135.98;;;-0.10;92.70;;;;;;5064641;28;20080;-75
2024/01/07 11:25:30;;;;;;;303.60;273.33;;;-0.20;93.50;;;;;;5076258;28;20079;-75
2024/01/07 11:27:57;;;;;;;115.53;109.10;;;-0.30;91.20;;;;;;5079638;28;20052;-75
2024/01/07 11:30:23;;;;;;;135.95;128.60;;;-0.30;91.60;;;;;;5074743;28;20047;-75
2024/01/07 11:33:00;;;;;;;177.33;167.53;;;-0.30;92.30;;;;;;5066095;28;20126;-75
2024/01/07 11:35:50;;;;;;;104.65;98.97;;;-0.30;93.40;;;;;;5072101;28;20454;-75
2024/01/07 11:38:16;;;;;;;108.05;102.47;;;-0.40;93.30;;;;;;5072108;28;20486;-75
2024/01/07 11:40:42;;;;;;;122.90;116.45;;;-0.30;94.00;;;;;;5060457;28;20050;-75
2024/01/07 11:43:11;;;;;;;124.80;118.30;;;-0.30;94.50;;;;;;5071620;28;20040;-76
2024/01/07 11:45:36;;;;;;;121.28;114.68;;;-0.20;94.50;;;;;;5055628;28;20097;-76
2024/01/07 11:48:04;;;;;;;139.60;131.97;;;-0.10;93.90;;;;;;5078912;28;20032;-76
2024/01/07 11:50:30;;;;;;;112.78;106.55;;;0.00;94.70;;;;;;5080804;28;20559;-76
2024/01/07 11:52:56;;;;;;;151.70;143.37;;;0.10;93.70;;;;;;5073612;28;20130;-76
2024/01/07 11:55:22;;;;;;;156.93;148.40;;;0.10;92.90;;;;;;5054257;28;20226;-76
2024/01/07 11:57:47;;;;;;;192.20;179.90;;;0.20;94.50;;;;;;5065009;28;20032;-76
2024/01/07 12:00:14;;;;;;;144.43;136.70;;;0.30;94.10;;;;;;5054385;28;20135;-76
2024/01/07 12:02:39;;;;;;;134.15;126.53;;;0.40;94.30;;;;;;5078721;28;20048;-76
2024/01/07 12:05:05;;;;;;;153.13;144.47;;;0.40;90.60;;;;;;5076170;28;20133;-76
2024/01/07 12:07:32;;;;;;;157.47;148.90;;;0.40;92.80;;;;;;5068732;28;20499;-76
2024/01/07 12:09:58;;;;;;;124.55;118.10;;;0.40;90.70;;;;;;5071810;28;20045;-77
2024/01/07 12:12:24;;;;;;;121.17;114.53;;;0.40;91.00;;;;;;5061275;28;20097;-78